Time;durP1;ratioP1;P1;durP2;ratioP2;P2;SDS_P1;SDS_P2;PMS_P1;PMS_P2;Temp;Humidity;BMP_temperature;BMP_pressure;BME280_temperature;BME280_humidity;BME280_pressure;Samples;Min_cycle;Max_cycle;Signal;HPM_P1;HPM_P2
2020/12/20 00:02:10;;;;;;;51.00;47.87;;;7.80;99.90;;;;;;6196452;23;20417;-81
2020/12/20 00:04:37;;;;;;;58.67;55.17;;;7.80;99.90;;;;;;6186455;23;20468;-81
2020/12/20 00:07:21;;;;;;;62.10;58.47;;;7.80;99.90;;;;;;6196176;23;20451;-81
2020/12/20 00:09:47;;;;;;;63.23;59.53;;;7.80;99.90;;;;;;6186337;23;20613;-81
2020/12/20 00:12:14;;;;;;;66.07;62.57;;;7.80;99.90;;;;;;6184490;23;20943;-80
2020/12/20 00:14:40;;;;;;;66.00;62.50;;;7.90;99.90;;;;;;6186312;23;20440;-80
2020/12/20 00:17:08;;;;;;;74.47;70.27;;;8.00;99.90;;;;;;6196054;23;20897;-80
2020/12/20 00:19:38;;;;;;;73.83;69.93;;;8.00;99.90;;;;;;6185721;23;20436;-80
2020/12/20 00:22:09;;;;;;;73.23;69.50;;;8.00;99.90;;;;;;6185786;23;20481;-80
2020/12/20 00:24:36;;;;;;;77.07;72.87;;;8.00;99.90;;;;;;6186260;23;20405;-80
2020/12/20 00:27:05;;;;;;;71.60;68.00;;;8.10;99.90;;;;;;6184585;23;20511;-80
2020/12/20 00:29:32;;;;;;;72.70;68.73;;;8.20;99.90;;;;;;6195794;23;20437;-81
2020/12/20 00:31:59;;;;;;;73.93;69.90;;;8.30;99.90;;;;;;6185914;23;20812;-81
2020/12/20 00:34:27;;;;;;;64.10;60.20;;;8.20;99.90;;;;;;6186246;23;20401;-81
2020/12/20 00:36:55;;;;;;;64.20;60.70;;;8.30;99.90;;;;;;6196055;23;20429;-80
2020/12/20 00:39:22;;;;;;;58.40;55.13;;;8.40;99.90;;;;;;6186026;23;20405;-80
2020/12/20 00:41:55;;;;;;;50.33;47.27;;;8.50;99.90;;;;;;6184498;23;20432;-82
2020/12/20 00:44:23;;;;;;;44.40;41.40;;;8.50;99.90;;;;;;6186095;23;20488;-80
2020/12/20 00:46:50;;;;;;;41.37;38.83;;;8.50;99.90;;;;;;6185531;23;20484;-81
2020/12/20 00:49:18;;;;;;;40.57;37.70;;;8.40;99.90;;;;;;6186085;23;20404;-80
2020/12/20 00:51:45;;;;;;;35.67;33.17;;;8.50;99.90;;;;;;6185713;23;20452;-81
2020/12/20 00:54:12;;;;;;;35.17;31.87;;;8.60;99.90;;;;;;6186037;23;20944;-80
2020/12/20 00:56:46;;;;;;;34.53;31.57;;;8.50;99.90;;;;;;6185326;23;20896;-80
2020/12/20 00:59:15;;;;;;;32.53;30.23;;;8.50;99.90;;;;;;6185292;23;20432;-81
2020/12/20 01:01:48;;;;;;;32.53;30.03;;;8.50;99.90;;;;;;6185662;23;20429;-80
2020/12/20 01:04:28;;;;;;;32.40;29.73;;;8.50;99.90;;;;;;6186732;23;20405;-81
2020/12/20 01:06:55;;;;;;;31.90;29.33;;;8.40;99.90;;;;;;6185722;23;20401;-81
2020/12/20 01:09:32;;;;;;;34.93;31.93;;;8.50;99.90;;;;;;6185484;23;20444;-81
2020/12/20 01:12:01;;;;;;;35.70;32.67;;;8.60;99.90;;;;;;6184086;23;20491;-81
2020/12/20 01:14:28;;;;;;;32.80;30.30;;;8.60;99.90;;;;;;6196272;23;20496;-81
2020/12/20 01:16:54;;;;;;;33.50;31.20;;;8.60;99.90;;;;;;6185680;23;20733;-80
2020/12/20 01:19:21;;;;;;;33.97;31.20;;;8.50;99.90;;;;;;6185641;23;20429;-81
2020/12/20 01:21:52;;;;;;;31.93;29.33;;;8.60;99.90;;;;;;6195605;23;20788;-81
2020/12/20 01:24:18;;;;;;;32.57;30.17;;;8.70;99.90;;;;;;6185299;23;20492;-81
2020/12/20 01:26:45;;;;;;;34.10;31.10;;;8.70;99.90;;;;;;6184666;23;20409;-80
2020/12/20 01:29:13;;;;;;;33.20;30.43;;;8.60;99.90;;;;;;6185156;23;20459;-81
2020/12/20 01:31:40;;;;;;;31.73;29.03;;;8.70;99.90;;;;;;6185436;23;20443;-81
2020/12/20 01:34:06;;;;;;;31.00;27.93;;;8.70;99.90;;;;;;6185468;23;20437;-80
2020/12/20 01:36:33;;;;;;;31.77;29.17;;;8.70;99.90;;;;;;6195387;23;20731;-81
2020/12/20 01:38:59;;;;;;;29.47;26.63;;;8.70;99.90;;;;;;6185363;23;20394;-81
2020/12/20 01:41:30;;;;;;;28.77;26.37;;;8.80;99.90;;;;;;6194945;23;20947;-81
2020/12/20 01:44:00;;;;;;;28.90;26.30;;;8.80;99.90;;;;;;6194676;23;20420;-80
2020/12/20 01:46:32;;;;;;;29.20;26.27;;;8.80;99.90;;;;;;6195739;23;20472;-80
2020/12/20 01:49:00;;;;;;;26.70;24.50;;;8.90;99.90;;;;;;6195100;23;20992;-81
2020/12/20 01:51:31;;;;;;;24.70;22.53;;;9.00;99.90;;;;;;6185316;23;20753;-81
2020/12/20 01:53:58;;;;;;;24.00;22.10;;;9.10;99.90;;;;;;6185224;23;20419;-80
2020/12/20 01:56:26;;;;;;;22.27;20.07;;;9.00;99.90;;;;;;6186125;23;20405;-81
2020/12/20 01:58:54;;;;;;;21.93;19.80;;;9.10;99.90;;;;;;6196095;23;20463;-82
2020/12/20 02:01:21;;;;;;;20.70;18.60;;;9.30;99.90;;;;;;6197659;23;20408;-81
2020/12/20 02:03:55;;;;;;;20.30;18.33;;;9.10;99.90;;;;;;6197239;23;20442;-81
2020/12/20 02:06:21;;;;;;;21.13;19.20;;;9.20;99.90;;;;;;6197245;23;20736;-83
2020/12/20 02:08:48;;;;;;;20.77;18.80;;;9.10;99.90;;;;;;6187517;23;20463;-80
2020/12/20 02:11:15;;;;;;;22.73;20.40;;;9.00;99.90;;;;;;6197076;23;20457;-81
2020/12/20 02:13:43;;;;;;;21.40;19.30;;;9.00;99.90;;;;;;6185878;23;20397;-81
2020/12/20 02:16:13;;;;;;;23.33;19.00;;;9.00;99.90;;;;;;6187093;23;20401;-80
2020/12/20 02:18:40;;;;;;;22.13;20.23;;;9.00;99.90;;;;;;6197109;23;20500;-81
2020/12/20 02:21:12;;;;;;;22.10;20.20;;;9.00;99.90;;;;;;6196991;23;20912;-80
2020/12/20 02:23:48;;;;;;;23.77;21.40;;;9.00;99.90;;;;;;6186727;23;20403;-80
2020/12/20 02:26:18;;;;;;;22.67;20.83;;;8.90;99.90;;;;;;6197386;23;20428;-80
2020/12/20 02:29:10;;;;;;;;;;;;;;;;;;;;;
2020/12/20 02:31:37;;;;;;;24.73;22.53;;;8.90;99.90;;;;;;6165724;23;20811;-81
2020/12/20 02:34:16;;;;;;;;;;;;;;;;;;;;;
2020/12/20 02:36:43;;;;;;;25.73;23.53;;;8.90;99.90;;;;;;6186290;23;20480;-81
2020/12/20 02:39:10;;;;;;;26.33;23.83;;;8.90;99.90;;;;;;6187284;23;20436;-80
2020/12/20 02:41:36;;;;;;;26.70;24.60;;;8.90;99.90;;;;;;6197077;23;20402;-80
2020/12/20 02:44:08;;;;;;;26.47;24.27;;;8.80;99.90;;;;;;6195631;23;20413;-80
2020/12/20 02:46:34;;;;;;;28.10;25.80;;;8.80;99.90;;;;;;6186612;23;20940;-81
2020/12/20 02:49:01;;;;;;;27.57;25.30;;;8.90;99.90;;;;;;6187130;23;20405;-81
2020/12/20 02:51:29;;;;;;;30.00;27.40;;;8.80;99.90;;;;;;6196926;23;20787;-81
2020/12/20 02:53:58;;;;;;;26.93;24.63;;;8.90;99.90;;;;;;6196561;23;20885;-80
2020/12/20 02:56:25;;;;;;;26.47;24.17;;;8.80;99.90;;;;;;6186987;23;20483;-80
2020/12/20 02:58:52;;;;;;;27.23;24.83;;;8.80;99.90;;;;;;6195482;23;20416;-81
2020/12/20 03:01:20;;;;;;;25.73;23.70;;;8.80;99.90;;;;;;6186940;23;20411;-81
2020/12/20 03:03:48;;;;;;;28.00;25.77;;;8.80;99.90;;;;;;6186968;23;20405;-81
2020/12/20 03:06:17;;;;;;;27.50;25.03;;;8.80;99.90;;;;;;6186915;23;20405;-80
2020/12/20 03:08:43;;;;;;;29.63;27.23;;;8.60;99.90;;;;;;6186090;23;20412;-81
2020/12/20 03:11:15;;;;;;;33.00;29.83;;;8.60;99.90;;;;;;6186730;23;20473;-81
2020/12/20 03:13:50;;;;;;;32.80;30.27;;;8.40;99.90;;;;;;6185486;23;20405;-81
2020/12/20 03:16:16;;;;;;;37.67;34.37;;;8.40;99.90;;;;;;6186284;23;20400;-81
2020/12/20 03:18:45;;;;;;;37.33;34.60;;;8.40;99.90;;;;;;6196418;23;20487;-81
2020/12/20 03:21:11;;;;;;;41.33;38.33;;;8.30;99.90;;;;;;6196316;23;20405;-80
2020/12/20 03:23:38;;;;;;;44.27;40.97;;;8.30;99.90;;;;;;6186469;23;20912;-81
2020/12/20 03:26:08;;;;;;;50.13;46.77;;;8.20;99.90;;;;;;6186316;23;20408;-81
2020/12/20 03:28:37;;;;;;;51.63;48.20;;;8.20;99.90;;;;;;6184993;23;20444;-81
2020/12/20 03:31:05;;;;;;;53.97;50.50;;;8.20;99.90;;;;;;6186148;23;20398;-81
2020/12/20 03:33:34;;;;;;;51.80;48.13;;;8.20;99.90;;;;;;6196227;23;20776;-80
2020/12/20 03:36:00;;;;;;;51.80;48.47;;;8.30;99.90;;;;;;6186535;23;20405;-80
2020/12/20 03:38:27;;;;;;;50.83;47.33;;;8.40;99.90;;;;;;6186192;23;20912;-81
2020/12/20 03:40:53;;;;;;;46.40;43.60;;;8.40;99.90;;;;;;6186577;23;20405;-81
2020/12/20 03:43:19;;;;;;;44.20;41.17;;;8.40;99.90;;;;;;6184707;23;20463;-81
2020/12/20 03:45:51;;;;;;;46.70;43.03;;;8.50;99.90;;;;;;6196363;23;20736;-81
2020/12/20 03:48:17;;;;;;;41.43;38.83;;;8.40;99.90;;;;;;6186481;23;20874;-81
2020/12/20 03:50:45;;;;;;;43.27;40.40;;;8.50;99.90;;;;;;6186326;23;20408;-81
2020/12/20 03:53:11;;;;;;;39.83;36.73;;;8.50;99.90;;;;;;6196431;23;20491;-81
2020/12/20 03:55:37;;;;;;;41.40;38.30;;;8.60;99.90;;;;;;6186507;23;20441;-80
2020/12/20 03:58:20;;;;;;;38.63;35.43;;;8.60;99.90;;;;;;6195009;23;20416;-81
2020/12/20 04:00:48;;;;;;;40.10;37.17;;;8.60;99.90;;;;;;6195801;23;20412;-80
2020/12/20 04:03:16;;;;;;;39.50;36.57;;;8.60;99.90;;;;;;6186450;23;20424;-81
2020/12/20 04:05:42;;;;;;;39.33;36.40;;;8.60;99.90;;;;;;6186338;23;20458;-81
2020/12/20 04:08:08;;;;;;;37.63;35.13;;;8.60;99.90;;;;;;6196462;23;20445;-80
2020/12/20 04:10:39;;;;;;;39.43;36.67;;;8.50;99.90;;;;;;6186323;23;20397;-81
2020/12/20 04:13:08;;;;;;;39.97;36.70;;;8.40;99.90;;;;;;6184377;23;20948;-80
2020/12/20 04:15:35;;;;;;;39.60;36.93;;;8.40;99.90;;;;;;6186133;23;20773;-81
2020/12/20 04:18:03;;;;;;;41.53;38.57;;;8.40;99.90;;;;;;6195976;23;20460;-80
2020/12/20 04:20:29;;;;;;;45.37;42.13;;;8.30;99.90;;;;;;6185404;23;20398;-79
2020/12/20 04:22:56;;;;;;;50.43;47.13;;;8.30;99.90;;;;;;6186285;23;20437;-80
2020/12/20 04:25:23;;;;;;;50.80;47.30;;;8.20;99.90;;;;;;6185821;23;20409;-80
2020/12/20 04:27:50;;;;;;;54.20;50.70;;;8.10;99.90;;;;;;6194627;23;20437;-80
2020/12/20 04:30:16;;;;;;;55.33;51.30;;;8.20;99.90;;;;;;6196066;23;20408;-80
2020/12/20 04:32:43;;;;;;;50.87;47.90;;;8.30;99.90;;;;;;6186046;23;20444;-80
2020/12/20 04:35:56;;;;;;;;;;;;;;;;;;;;;
2020/12/20 04:38:23;;;;;;;47.10;44.03;;;8.30;99.90;;;;;;6128635;23;20413;-81
2020/12/20 04:40:50;;;;;;;46.57;43.40;;;8.40;99.90;;;;;;6185907;23;20433;-80
2020/12/20 04:43:16;;;;;;;47.20;43.83;;;8.30;99.90;;;;;;6194601;23;20571;-81
2020/12/20 04:45:43;;;;;;;47.70;44.30;;;8.30;99.90;;;;;;6195922;23;20405;-81
2020/12/20 04:48:12;;;;;;;50.03;46.53;;;8.30;99.90;;;;;;6186086;23;20397;-80
2020/12/20 04:50:41;;;;;;;49.10;45.30;;;8.30;99.90;;;;;;6185812;23;20482;-80
2020/12/20 04:53:07;;;;;;;47.87;44.67;;;8.30;99.90;;;;;;6195777;23;20437;-81
2020/12/20 04:55:36;;;;;;;49.70;46.20;;;8.30;99.90;;;;;;6185509;23;20480;-81
2020/12/20 04:58:03;;;;;;;50.87;47.47;;;8.30;99.90;;;;;;6184406;23;20408;-80
2020/12/20 05:00:30;;;;;;;55.00;50.90;;;8.10;99.90;;;;;;6185320;23;20484;-81
2020/12/20 05:02:57;;;;;;;55.70;52.10;;;8.20;99.90;;;;;;6195972;23;20464;-80
2020/12/20 05:05:26;;;;;;;55.30;51.77;;;8.10;99.90;;;;;;6185283;23;20889;-80
2020/12/20 05:07:53;;;;;;;57.63;53.83;;;8.10;99.90;;;;;;6185334;23;20437;-80
2020/12/20 05:10:19;;;;;;;58.03;54.30;;;8.10;99.90;;;;;;6185650;23;20397;-79
2020/12/20 05:12:47;;;;;;;61.60;57.43;;;8.10;99.90;;;;;;6184014;23;20520;-80
2020/12/20 05:15:21;;;;;;;61.67;57.60;;;8.10;99.90;;;;;;6195420;23;20436;-80
2020/12/20 05:17:48;;;;;;;62.70;58.90;;;8.10;99.90;;;;;;6185603;23;20488;-80
2020/12/20 05:20:34;;;;;;;64.40;60.37;;;8.20;99.90;;;;;;6195623;23;20433;-81
2020/12/20 05:23:01;;;;;;;63.23;59.70;;;8.10;99.90;;;;;;6185733;23;20405;-79
2020/12/20 05:25:34;;;;;;;60.70;56.67;;;8.20;99.90;;;;;;6185298;23;20405;-81
2020/12/20 05:28:19;;;;;;;60.30;56.70;;;8.30;99.90;;;;;;6183774;23;20404;-81
2020/12/20 05:33:58;;;;;;;56.43;52.67;;;8.30;99.90;;;;;;5924243;24;20781;-81
2020/12/20 05:36:26;;;;;;;53.33;49.60;;;8.40;99.90;;;;;;6182086;23;20413;-79
2020/12/20 05:38:54;;;;;;;51.80;48.30;;;8.40;99.90;;;;;;6185016;23;20897;-83
2020/12/20 05:41:30;;;;;;;51.73;48.13;;;8.40;99.90;;;;;;6185604;23;20404;-80
2020/12/20 05:44:14;;;;;;;49.23;45.83;;;8.40;99.90;;;;;;6183974;23;20401;-81
2020/12/20 05:46:43;;;;;;;49.63;46.20;;;8.40;99.90;;;;;;6195198;23;20413;-82
2020/12/20 05:49:21;;;;;;;47.10;43.67;;;8.50;99.90;;;;;;6185287;23;20416;-82
2020/12/20 05:52:06;;;;;;;46.80;43.53;;;8.40;99.90;;;;;;6195000;23;20432;-82
2020/12/20 05:54:37;;;;;;;50.13;46.40;;;8.50;99.90;;;;;;6186430;23;20480;-82
2020/12/20 05:57:15;;;;;;;48.87;45.57;;;8.40;99.90;;;;;;6183942;23;21234;-80
2020/12/20 05:59:43;;;;;;;50.00;46.53;;;8.40;99.90;;;;;;6185120;23;20397;-81
2020/12/20 06:02:13;;;;;;;52.20;48.80;;;8.40;99.90;;;;;;6195358;23;20401;-81
2020/12/20 06:04:41;;;;;;;53.27;49.87;;;8.40;99.90;;;;;;6185123;23;20908;-81
2020/12/20 06:07:09;;;;;;;51.00;47.40;;;8.30;99.90;;;;;;6195479;23;20412;-82
2020/12/20 06:09:56;;;;;;;52.60;49.30;;;8.20;99.90;;;;;;6185031;23;20425;-81
2020/12/20 06:12:25;;;;;;;54.77;50.97;;;8.30;99.90;;;;;;6193406;23;20451;-81
2020/12/20 06:14:54;;;;;;;57.33;53.00;;;8.20;99.90;;;;;;6185337;23;20400;-81
2020/12/20 06:17:33;;;;;;;56.07;52.30;;;8.30;99.90;;;;;;6185096;23;20944;-79
2020/12/20 06:20:09;;;;;;;59.70;55.80;;;8.20;99.90;;;;;;6195034;23;20409;-82
2020/12/20 06:22:43;;;;;;;59.40;55.80;;;8.20;99.90;;;;;;6184734;23;20404;-82
2020/12/20 06:25:24;;;;;;;59.17;55.57;;;8.20;99.90;;;;;;6184857;23;20401;-81
2020/12/20 06:27:51;;;;;;;61.77;57.47;;;8.10;99.90;;;;;;6193330;23;20467;-82
2020/12/20 06:30:25;;;;;;;62.73;58.73;;;8.20;99.90;;;;;;6194920;23;20405;-82
2020/12/20 06:33:00;;;;;;;62.07;58.20;;;8.00;99.90;;;;;;6185203;23;20437;-83
2020/12/20 06:35:30;;;;;;;66.77;62.37;;;8.10;99.90;;;;;;6195083;23;20419;-82
2020/12/20 06:37:58;;;;;;;64.20;60.40;;;8.10;99.90;;;;;;6184736;23;20405;-82
2020/12/20 06:40:43;;;;;;;67.07;62.50;;;8.10;99.90;;;;;;6185046;23;20456;-81
2020/12/20 06:43:10;;;;;;;64.20;60.60;;;8.10;99.90;;;;;;6184051;23;20401;-81
2020/12/20 06:45:43;;;;;;;64.07;60.30;;;8.20;99.90;;;;;;6186488;23;20407;-81
2020/12/20 06:48:12;;;;;;;64.33;60.40;;;8.00;99.90;;;;;;6196552;23;20806;-80
2020/12/20 06:50:44;;;;;;;71.63;67.17;;;7.90;99.90;;;;;;6187056;23;20408;-80
2020/12/20 06:53:12;;;;;;;78.60;73.60;;;8.00;99.90;;;;;;6187027;23;20433;-80
2020/12/20 06:55:39;;;;;;;80.17;75.37;;;7.90;99.90;;;;;;6196899;23;20421;-81
2020/12/20 06:58:13;;;;;;;80.77;76.20;;;7.90;99.90;;;;;;6185445;23;20479;-80
2020/12/20 07:00:43;;;;;;;84.23;79.63;;;7.90;99.90;;;;;;6196901;23;20452;-81
2020/12/20 07:03:10;;;;;;;87.80;82.80;;;7.90;99.90;;;;;;6187061;23;20443;-81
2020/12/20 07:05:43;;;;;;;91.57;86.30;;;7.70;99.90;;;;;;6197001;23;20413;-81
2020/12/20 07:08:19;;;;;;;85.97;81.07;;;7.70;99.90;;;;;;6186670;23;20897;-80
2020/12/20 07:10:49;;;;;;;92.27;87.13;;;7.60;99.90;;;;;;6186716;23;20390;-80
2020/12/20 07:13:17;;;;;;;103.90;98.23;;;7.60;99.90;;;;;;6195043;23;20516;-81
2020/12/20 07:15:45;;;;;;;108.70;102.50;;;7.60;99.90;;;;;;6186789;23;20433;-79
2020/12/20 07:18:51;;;;;;;117.10;111.13;;;7.60;99.90;;;;;;6186662;23;20437;-79
2020/12/20 07:21:46;;;;;;;120.97;114.97;;;7.60;99.90;;;;;;6186781;23;20431;-80
2020/12/20 07:24:19;;;;;;;123.20;116.53;;;7.60;99.90;;;;;;6186473;23;20411;-79
2020/12/20 07:26:53;;;;;;;128.23;121.60;;;7.50;99.90;;;;;;6186792;23;20401;-80
2020/12/20 07:29:20;;;;;;;145.20;137.10;;;7.60;99.90;;;;;;6186341;23;20443;-79
2020/12/20 07:31:53;;;;;;;132.23;125.57;;;7.40;99.90;;;;;;6186385;23;20456;-80
2020/12/20 07:34:22;;;;;;;131.50;124.70;;;7.40;99.90;;;;;;6196445;23;20420;-81
2020/12/20 07:36:49;;;;;;;134.67;127.30;;;7.30;99.90;;;;;;6196753;23;20449;-80
2020/12/20 07:39:15;;;;;;;129.07;122.80;;;7.20;99.90;;;;;;6186537;23;20765;-81
2020/12/20 07:41:42;;;;;;;141.00;133.70;;;7.10;99.90;;;;;;6186269;23;20404;-80
2020/12/20 07:44:10;;;;;;;149.50;141.80;;;7.10;99.90;;;;;;6195023;23;20409;-81
2020/12/20 07:46:37;;;;;;;150.87;143.00;;;7.00;99.90;;;;;;6186694;23;20413;-81
2020/12/20 07:49:07;;;;;;;161.30;152.67;;;7.20;99.90;;;;;;6186718;23;20429;-81
2020/12/20 07:51:33;;;;;;;168.80;160.47;;;7.20;99.90;;;;;;6186345;23;20448;-81
2020/12/20 07:54:02;;;;;;;174.10;165.70;;;7.10;99.90;;;;;;6196182;23;20448;-81
2020/12/20 07:56:30;;;;;;;180.47;171.57;;;7.20;99.90;;;;;;6185898;23;20896;-80
2020/12/20 07:58:59;;;;;;;185.73;177.27;;;7.10;99.90;;;;;;6185044;23;20401;-81
2020/12/20 08:01:26;;;;;;;181.57;172.93;;;7.20;99.90;;;;;;6186009;23;20429;-81
2020/12/20 08:04:02;;;;;;;182.27;173.97;;;7.20;99.90;;;;;;6186196;23;20397;-81
2020/12/20 08:06:33;;;;;;;177.70;169.20;;;7.30;99.90;;;;;;6186603;23;20408;-81
2020/12/20 08:09:11;;;;;;;172.90;164.43;;;7.50;99.90;;;;;;6196033;23;20700;-79
2020/12/20 08:11:38;;;;;;;172.70;164.70;;;7.50;99.90;;;;;;6195932;23;20736;-80
2020/12/20 08:14:25;;;;;;;;;;;;;;;;;;;;;
2020/12/20 08:16:57;;;;;;;176.37;167.33;;;7.50;99.90;;;;;;6185705;23;20443;-80
2020/12/20 08:19:28;;;;;;;176.47;168.07;;;7.60;99.90;;;;;;6186020;23;20485;-80
2020/12/20 08:22:04;;;;;;;172.90;164.57;;;7.60;99.90;;;;;;6186279;23;20417;-80
2020/12/20 08:24:32;;;;;;;160.37;152.77;;;7.70;99.90;;;;;;6185971;23;20403;-80
2020/12/20 08:27:01;;;;;;;155.30;147.60;;;7.70;99.90;;;;;;6184467;23;20420;-80
2020/12/20 08:29:27;;;;;;;150.13;142.53;;;7.80;99.90;;;;;;6195677;23;20956;-80
2020/12/20 08:32:09;;;;;;;143.40;136.50;;;7.90;99.90;;;;;;6185825;23;20504;-81
2020/12/20 08:34:35;;;;;;;134.13;127.40;;;8.00;99.90;;;;;;6195851;23;20409;-80
2020/12/20 08:37:09;;;;;;;124.60;118.50;;;8.00;99.90;;;;;;6185995;23;20401;-80
2020/12/20 08:39:35;;;;;;;114.27;108.40;;;8.10;99.90;;;;;;6185636;23;20404;-80
2020/12/20 08:42:03;;;;;;;105.20;99.80;;;8.10;99.90;;;;;;6194068;23;20436;-81
2020/12/20 08:44:31;;;;;;;93.97;88.67;;;8.20;99.90;;;;;;6195819;23;20405;-80
2020/12/20 08:47:13;;;;;;;87.07;81.60;;;8.30;99.90;;;;;;6195894;23;20714;-79
2020/12/20 08:49:41;;;;;;;66.87;62.73;;;8.20;99.90;;;;;;6192521;23;20897;-80
2020/12/20 08:52:10;;;;;;;58.97;55.63;;;8.40;99.90;;;;;;6192808;23;20437;-80
2020/12/20 08:54:41;;;;;;;50.70;47.37;;;8.50;99.90;;;;;;6193998;23;20451;-80
2020/12/20 08:57:10;;;;;;;43.90;40.40;;;8.60;99.90;;;;;;6182478;23;20502;-80
2020/12/20 08:59:41;;;;;;;38.20;35.20;;;8.60;99.90;;;;;;6183772;23;20398;-80
2020/12/20 09:02:09;;;;;;;30.93;28.70;;;8.80;99.90;;;;;;6193849;23;20424;-80
2020/12/20 09:04:38;;;;;;;27.50;25.40;;;8.90;99.90;;;;;;6183866;23;20421;-80
2020/12/20 09:07:07;;;;;;;26.27;23.97;;;8.90;99.90;;;;;;6193715;23;20487;-80
2020/12/20 09:09:39;;;;;;;21.80;19.73;;;9.00;99.90;;;;;;6183686;23;20699;-80
2020/12/20 09:12:14;;;;;;;18.60;16.70;;;9.00;99.90;;;;;;6181424;23;20433;-80
2020/12/20 09:14:57;;;;;;;17.23;15.70;;;9.10;99.90;;;;;;6193448;23;20427;-80
2020/12/20 09:17:29;;;;;;;16.47;14.73;;;9.20;99.90;;;;;;6193665;23;20441;-80
2020/12/20 09:19:56;;;;;;;17.10;13.60;;;9.40;99.90;;;;;;6183782;23;20409;-80
2020/12/20 09:22:36;;;;;;;16.17;11.60;;;9.30;99.90;;;;;;6183954;23;20712;-81
2020/12/20 09:25:07;;;;;;;16.27;10.50;;;9.40;99.90;;;;;;6195371;23;20415;-80
2020/12/20 09:27:34;;;;;;;23.27;12.67;;;9.50;99.90;;;;;;6184104;23;20405;-80
2020/12/20 09:30:05;;;;;;;17.30;11.67;;;9.60;99.90;;;;;;6185534;23;20433;-81
2020/12/20 09:32:39;;;;;;;16.90;10.90;;;9.70;99.90;;;;;;6185290;23;20437;-81
2020/12/20 09:35:12;;;;;;;21.40;11.37;;;9.80;99.90;;;;;;6184987;23;20952;-80
2020/12/20 09:37:40;;;;;;;16.07;10.70;;;10.00;99.90;;;;;;6184907;23;20405;-81
2020/12/20 09:40:08;;;;;;;14.70;9.90;;;10.10;99.90;;;;;;6195516;23;20409;-81
2020/12/20 09:42:41;;;;;;;23.43;9.83;;;10.30;99.90;;;;;;6183637;23;20433;-81
2020/12/20 09:45:08;;;;;;;13.53;6.33;;;10.20;99.90;;;;;;6185476;23;20742;-81
2020/12/20 09:47:39;;;;;;;11.30;6.90;;;10.40;99.40;;;;;;6195399;23;20393;-81
2020/12/20 09:50:18;;;;;;;15.17;6.73;;;10.50;98.70;;;;;;6185589;23;20709;-81
2020/12/20 09:52:45;;;;;;;12.30;6.67;;;10.50;96.20;;;;;;6195057;23;20515;-81
2020/12/20 09:55:14;;;;;;;9.57;5.67;;;10.50;94.50;;;;;;6185470;23;20456;-81
2020/12/20 09:57:42;;;;;;;12.77;5.83;;;10.50;94.50;;;;;;6183532;23;20421;-81
2020/12/20 10:00:13;;;;;;;16.60;6.50;;;10.50;93.80;;;;;;6195232;23;20437;-81
2020/12/20 10:02:45;;;;;;;11.33;6.70;;;10.60;93.10;;;;;;6185423;23;20436;-81
2020/12/20 10:05:26;;;;;;;15.73;6.50;;;10.60;93.80;;;;;;6185247;23;20467;-81
2020/12/20 10:07:54;;;;;;;13.00;6.67;;;10.60;94.60;;;;;;6185333;23;20405;-82
2020/12/20 10:10:23;;;;;;;20.93;6.57;;;10.60;93.80;;;;;;6185099;23;20963;-82
2020/12/20 10:12:49;;;;;;;16.43;6.53;;;10.60;93.90;;;;;;6193576;23;20449;-81
2020/12/20 10:15:19;;;;;;;11.23;6.30;;;10.70;94.50;;;;;;6185476;23;20452;-82
2020/12/20 10:18:16;;;;;;;8.50;6.10;;;10.70;94.50;;;;;;6185884;23;20732;-81
2020/12/20 10:21:08;;;;;;;;;;;;;;;;;;;;;
2020/12/20 10:23:35;;;;;;;10.73;5.37;;;10.60;90.30;;;;;;6174081;23;20451;-81
2020/12/20 10:26:03;;;;;;;10.27;5.30;;;10.60;90.50;;;;;;6187249;23;20488;-81
2020/12/20 10:28:34;;;;;;;12.47;5.30;;;10.60;90.40;;;;;;6185386;23;20507;-81
2020/12/20 10:31:03;;;;;;;12.13;5.80;;;10.70;90.00;;;;;;6186795;23;20401;-82
2020/12/20 10:33:40;;;;;;;;;;;;;;;;;;;;;
2020/12/20 10:36:20;;;;;;;17.53;4.97;;;10.80;86.50;;;;;;6194393;23;20409;-81
2020/12/20 10:38:56;;;;;;;12.60;5.60;;;10.80;88.20;;;;;;6196901;23;20726;-81
2020/12/20 10:41:23;;;;;;;14.97;5.23;;;10.90;88.60;;;;;;6197026;23;20842;-82
2020/12/20 10:43:50;;;;;;;18.67;6.07;;;11.00;86.30;;;;;;6195765;23;20718;-80
2020/12/20 10:46:22;;;;;;;11.60;5.40;;;10.90;85.70;;;;;;6187247;23;20408;-82
2020/12/20 10:48:48;;;;;;;9.60;5.30;;;11.00;86.90;;;;;;6196737;23;20404;-81
2020/12/20 10:51:19;;;;;;;13.07;5.63;;;11.00;85.60;;;;;;6196609;23;20436;-82
2020/12/20 10:53:50;;;;;;;9.70;5.30;;;11.00;83.60;;;;;;6186886;23;20468;-81
2020/12/20 10:56:26;;;;;;;13.40;5.27;;;11.10;82.50;;;;;;6186720;23;20435;-81
2020/12/20 10:58:54;;;;;;;11.57;5.20;;;11.10;82.60;;;;;;6185483;23;20400;-81
2020/12/20 11:01:46;;;;;;;11.27;5.33;;;11.10;82.80;;;;;;6186616;23;20440;-81
2020/12/20 11:04:20;;;;;;;13.93;5.83;;;11.20;83.60;;;;;;6181875;23;20784;-82
2020/12/20 11:06:47;;;;;;;11.03;4.87;;;11.30;83.50;;;;;;6186897;23;20722;-81
2020/12/20 11:09:28;;;;;;;;;;;;;;;;;;;;;
2020/12/20 11:12:05;;;;;;;;;;;;;;;;;;;;;
2020/12/20 11:14:32;;;;;;;13.17;7.03;;;11.20;84.80;;;;;;6188601;23;20405;-81
2020/12/20 11:17:09;;;;;;;;;;;;;;;;;;;;;
2020/12/20 11:22:38;;;;;;;12.83;8.53;;;11.10;85.60;;;;;;6196847;23;20419;-83
2020/12/20 11:28:36;;;;;;;14.33;7.60;;;11.10;89.40;;;;;;6082349;23;20441;-82
2020/12/20 11:31:07;;;;;;;13.23;6.73;;;11.10;89.30;;;;;;6186776;23;20398;-82
2020/12/20 11:33:49;;;;;;;16.00;6.83;;;11.20;88.50;;;;;;6186606;23;20433;-84
2020/12/20 11:36:48;;;;;;;;;;;;;;;;;;;;;
2020/12/20 11:39:42;;;;;;;;;;;;;;;;;;;;;
2020/12/20 11:42:10;;;;;;;14.50;7.90;;;11.20;91.30;;;;;;6121094;23;20482;-81
2020/12/20 11:44:40;;;;;;;12.60;8.00;;;11.10;90.70;;;;;;6186432;23;20397;-81
2020/12/20 11:47:11;;;;;;;15.67;8.10;;;11.10;91.00;;;;;;6196630;23;20401;-80
2020/12/20 11:50:13;;;;;;;14.03;7.90;;;11.10;91.30;;;;;;6196306;23;20492;-80
2020/12/20 11:52:41;;;;;;;16.27;7.10;;;11.10;90.50;;;;;;6186297;23;20432;-81
2020/12/20 11:55:17;;;;;;;11.43;7.50;;;11.00;90.50;;;;;;6186274;23;20427;-80
2020/12/20 11:57:50;;;;;;;15.80;7.73;;;11.00;90.20;;;;;;6194732;23;20409;-80
2020/12/20 12:00:33;;;;;;;;;;;;;;;;;;;;;
2020/12/20 12:03:00;;;;;;;16.87;7.80;;;11.20;89.10;;;;;;6190856;23;20478;-81
2020/12/20 12:05:39;;;;;;;;;;;;;;;;;;;;;
2020/12/20 12:08:10;;;;;;;16.27;7.50;;;11.20;87.80;;;;;;6172901;23;20416;-81
2020/12/20 12:10:51;;;;;;;16.67;8.10;;;11.20;87.40;;;;;;6186082;23;20496;-81
2020/12/20 12:13:20;;;;;;;14.30;7.10;;;11.30;88.10;;;;;;6194464;23;20444;-81
2020/12/20 12:16:06;;;;;;;14.17;8.67;;;11.30;87.70;;;;;;6186297;23;20434;-80
2020/12/20 12:18:33;;;;;;;19.90;7.80;;;11.40;89.80;;;;;;6186240;23;20455;-80
2020/12/20 12:21:01;;;;;;;17.30;8.30;;;11.50;89.80;;;;;;6186215;23;20401;-80
2020/12/20 12:23:33;;;;;;;11.83;7.57;;;11.50;86.50;;;;;;6185570;23;20401;-80
2020/12/20 12:26:23;;;;;;;12.50;8.07;;;11.70;85.00;;;;;;6168688;23;20871;-82
2020/12/20 12:28:49;;;;;;;14.27;7.93;;;11.80;83.60;;;;;;6177398;23;20924;-79
2020/12/20 12:31:22;;;;;;;16.13;7.30;;;11.90;81.80;;;;;;6195890;23;20416;-80
2020/12/20 12:33:49;;;;;;;16.17;7.53;;;11.80;78.50;;;;;;6195409;23;20830;-79
2020/12/20 12:36:34;;;;;;;17.10;7.30;;;11.80;78.50;;;;;;6196049;23;20405;-79
2020/12/20 12:39:12;;;;;;;17.20;7.20;;;11.80;78.50;;;;;;6195861;23;20411;-80
2020/12/20 12:41:50;;;;;;;22.70;6.97;;;11.80;78.50;;;;;;6195427;23;20408;-80
2020/12/20 12:44:16;;;;;;;16.50;7.50;;;11.80;77.50;;;;;;6184295;23;20881;-80
2020/12/20 12:46:48;;;;;;;18.73;7.03;;;11.80;78.60;;;;;;6195287;23;20405;-80
2020/12/20 12:49:28;;;;;;;;;;;;;;;;;;;;;
2020/12/20 12:51:59;;;;;;;16.03;5.97;;;11.80;74.50;;;;;;6172170;23;20488;-80
2020/12/20 12:54:40;;;;;;;13.43;4.60;;;11.90;71.90;;;;;;6186143;23;20401;-80
2020/12/20 12:57:09;;;;;;;13.20;4.80;;;11.90;67.70;;;;;;6193900;23;20405;-80
2020/12/20 13:00:01;;;;;;;9.77;4.37;;;12.00;67.70;;;;;;6185885;23;20485;-80
2020/12/20 13:02:47;;;;;;;;;;;;;;;;;;;;;
2020/12/20 13:05:14;;;;;;;9.63;4.50;;;12.00;67.30;;;;;;6148466;23;20429;-80
2020/12/20 13:07:41;;;;;;;12.20;5.17;;;12.10;67.50;;;;;;6186001;23;20401;-79
2020/12/20 13:10:07;;;;;;;17.10;5.30;;;12.20;66.00;;;;;;6185330;23;20972;-80
2020/12/20 13:16:29;;;;;;;13.90;4.60;;;12.20;64.60;;;;;;5877683;24;20439;-80
2020/12/20 13:18:58;;;;;;;9.27;3.60;;;12.30;63.10;;;;;;6155867;23;20444;-80
2020/12/20 13:21:58;;;;;;;24.80;4.00;;;12.20;61.40;;;;;;6195291;23;20781;-80
2020/12/20 13:24:32;;;;;;;11.77;3.73;;;11.90;59.40;;;;;;6120063;23;20486;-80
2020/12/20 13:27:45;;;;;;;21.77;4.83;;;11.90;60.70;;;;;;6132460;23;20410;-79
2020/12/20 13:30:15;;;;;;;11.37;3.40;;;11.70;61.20;;;;;;5897789;23;20970;-80